Time;durP1;ratioP1;P1;durP2;ratioP2;P2;SDS_P1;SDS_P2;PMS_P1;PMS_P2;Temp;Humidity;BMP_temperature;BMP_pressure;BME280_temperature;BME280_humidity;BME280_pressure;Samples;Min_cycle;Max_cycle;Signal;HPM_P1;HPM_P2
2022/12/14 00:01:34;;;;;;;3.30;1.80;;;;;;;17.30;29.71;100292.94;16130988;19;129659;-63
2022/12/14 00:06:56;;;;;;;3.97;1.70;;;;;;;17.25;30.12;100290.09;16128384;19;129485;-63
2022/12/14 00:12:17;;;;;;;2.47;1.73;;;;;;;17.21;29.82;100277.88;16126428;19;129312;-65
2022/12/14 00:17:39;;;;;;;1.77;1.45;;;;;;;17.19;29.87;100268.97;16126056;19;129767;-62
2022/12/14 00:23:03;;;;;;;2.40;1.40;;;;;;;17.16;30.18;100259.28;16125953;19;130058;-64
2022/12/14 00:28:25;;;;;;;2.22;1.60;;;;;;;17.11;29.92;100256.41;16125625;19;129334;-62
2022/12/14 00:33:49;;;;;;;3.35;1.83;;;;;;;17.09;29.87;100244.81;16126742;19;129468;-62
2022/12/14 00:39:10;;;;;;;1.50;1.17;;;;;;;17.07;30.09;100238.69;16125984;19;129834;-63
2022/12/14 00:44:33;;;;;;;2.25;1.60;;;;;;;17.02;30.15;100244.13;16123816;19;129506;-62
2022/12/14 00:49:54;;;;;;;2.25;1.50;;;;;;;17.02;30.07;100244.13;16124974;19;130637;-62
2022/12/14 00:55:16;;;;;;;2.00;1.25;;;;;;;16.98;29.81;100238.28;16120550;19;129449;-62
2022/12/14 01:00:38;;;;;;;2.28;1.65;;;;;;;16.96;30.09;100226.63;16124414;19;132665;-62
2022/12/14 01:06:01;;;;;;;1.77;1.42;;;;;;;16.93;29.89;100227.97;16122089;19;129481;-62
2022/12/14 01:11:23;;;;;;;1.60;1.17;;;;;;;16.92;30.12;100220.78;16124233;19;130630;-62
2022/12/14 01:16:44;;;;;;;1.67;1.20;;;;;;;16.89;30.05;100224.03;16121661;19;128963;-62
2022/12/14 01:22:06;;;;;;;2.05;1.58;;;;;;;16.87;30.23;100220.69;16121685;19;129861;-62
2022/12/14 01:27:28;;;;;;;2.33;1.60;;;;;;;16.86;29.81;100224.53;16123754;19;130995;-62
2022/12/14 01:32:50;;;;;;;3.45;1.50;;;;;;;16.83;30.16;100225.06;16122944;19;129883;-62
2022/12/14 01:38:11;;;;;;;1.48;1.10;;;;;;;16.81;29.90;100227.22;16122154;19;130351;-61
2022/12/14 01:43:51;;;;;;;2.45;1.45;;;;;;;16.81;29.97;100213.41;16121456;19;130153;-62
2022/12/14 01:49:41;;;;;;;2.63;1.65;;;;;;;16.80;29.95;100220.03;16119616;19;129282;-62
2022/12/14 01:55:13;;;;;;;2.03;1.23;;;;;;;16.77;30.15;100215.00;16120125;19;130366;-62
2022/12/14 02:00:35;;;;;;;2.53;1.40;;;;;;;16.73;30.17;100211.91;16127157;19;129160;-62
2022/12/14 02:06:05;;;;;;;1.52;1.25;;;;;;;16.74;30.46;100193.41;16135474;19;129712;-62
2022/12/14 02:11:38;;;;;;;1.50;1.40;;;;;;;16.70;29.93;100192.25;16134872;19;130095;-62
2022/12/14 02:17:00;;;;;;;1.83;1.20;;;;;;;16.68;30.26;100188.88;16136828;19;129927;-62
2022/12/14 02:22:43;;;;;;;1.55;1.10;;;;;;;16.66;30.53;100196.56;16135369;19;129770;-62
2022/12/14 02:28:32;;;;;;;1.52;1.05;;;;;;;16.68;30.36;100188.88;16134185;19;129256;-62
2022/12/14 02:34:05;;;;;;;1.25;1.15;;;;;;;16.65;30.05;100194.88;16133945;19;129020;-62
2022/12/14 02:39:44;;;;;;;1.50;1.00;;;;;;;16.62;30.14;100190.69;16133683;19;129766;-62
2022/12/14 02:45:27;;;;;;;1.02;0.93;;;;;;;16.61;30.56;100187.13;16131788;19;129378;-62
2022/12/14 02:51:10;;;;;;;1.42;1.30;;;;;;;16.59;30.14;100189.28;16134130;19;129807;-62
2022/12/14 02:56:48;;;;;;;3.83;1.20;;;;;;;16.57;30.24;100180.41;16133270;19;130828;-62
2022/12/14 03:02:12;;;;;;;1.98;1.20;;;;;;;16.55;30.15;100160.50;16129588;19;129883;-61
2022/12/14 03:07:34;;;;;;;1.40;1.20;;;;;;;16.52;30.15;100163.75;16131527;19;129646;-63
2022/12/14 03:13:07;;;;;;;1.25;1.00;;;;;;;16.53;30.52;100159.06;16131590;19;129953;-62
2022/12/14 03:18:36;;;;;;;1.60;1.20;;;;;;;16.51;30.24;100156.53;16129643;19;129789;-57
2022/12/14 03:24:03;;;;;;;2.10;1.42;;;;;;;16.49;30.54;100153.22;16128098;19;133785;-61
2022/12/14 03:29:28;;;;;;;1.55;1.00;;;;;;;16.49;30.38;100141.31;16130159;19;129831;-62
2022/12/14 03:35:04;;;;;;;1.65;1.15;;;;;;;16.48;30.61;100123.94;16133221;19;130472;-62
2022/12/14 03:40:35;;;;;;;1.47;1.17;;;;;;;16.44;30.70;100126.34;16130097;19;129639;-62
2022/12/14 03:46:13;;;;;;;1.17;1.08;;;;;;;16.44;30.42;100123.56;16128372;19;129505;-62
2022/12/14 03:52:01;;;;;;;1.50;1.30;;;;;;;16.42;30.41;100111.13;16128916;19;129472;-62
2022/12/14 03:57:38;;;;;;;1.33;1.23;;;;;;;16.41;30.49;100106.69;16128410;19;131233;-62
2022/12/14 04:03:21;;;;;;;2.28;1.60;;;;;;;16.39;30.45;100100.56;16119271;19;130554;-62
2022/12/14 04:08:51;;;;;;;1.83;1.33;;;;;;;16.37;30.44;100094.50;16128064;19;130132;-62
2022/12/14 04:20:08;;;;;;;1.52;1.13;;;;;;;16.35;30.28;100097.50;16129077;19;129017;-62
2022/12/14 04:31:20;;;;;;;1.40;1.25;;;;;;;16.30;30.24;100078.94;16129180;19;131232;-62
2022/12/14 04:36:47;;;;;;;2.42;1.70;;;;;;;16.29;30.61;100081.94;16126361;19;129177;-62
2022/12/14 04:42:13;;;;;;;1.58;1.23;;;;;;;16.27;30.26;100084.94;16126331;19;129183;-62
2022/12/14 04:47:43;;;;;;;1.60;1.42;;;;;;;16.25;30.52;100073.31;16126561;19;129836;-62
2022/12/14 04:53:11;;;;;;;2.25;1.50;;;;;;;16.25;30.33;100075.25;16125775;19;129290;-62
2022/12/14 04:58:34;;;;;;;1.58;1.35;;;;;;;16.21;30.66;100077.69;16124307;19;135629;-62
2022/12/14 05:04:20;;;;;;;1.70;1.52;;;;;;;16.22;30.46;100071.06;16124153;19;130212;-62
2022/12/14 05:10:04;;;;;;;2.13;1.55;;;;;;;16.22;30.28;100084.88;16126830;19;129849;-62
2022/12/14 05:15:41;;;;;;;2.10;1.55;;;;;;;16.19;30.32;100071.56;16122683;19;129597;-62
2022/12/14 05:21:03;;;;;;;1.73;1.40;;;;;;;16.17;30.62;100065.47;16123666;19;130806;-61
2022/12/14 05:26:25;;;;;;;2.72;1.45;;;;;;;16.16;30.51;100063.78;16121396;19;129535;-62
2022/12/14 05:31:47;;;;;;;1.40;1.30;;;;;;;16.15;30.30;100056.59;16124183;19;130117;-61
2022/12/14 05:37:10;;;;;;;1.88;1.45;;;;;;;16.13;30.60;100061.50;16135749;19;130161;-61
2022/12/14 05:42:38;;;;;;;2.00;1.20;;;;;;;16.11;30.27;100075.56;16140868;19;130608;-62
2022/12/14 05:48:06;;;;;;;2.95;1.60;;;;;;;16.12;30.26;100070.91;16136143;19;129446;-62
2022/12/14 05:53:28;;;;;;;2.00;1.40;;;;;;;16.11;30.65;100069.22;16138118;19;129995;-62
2022/12/14 05:58:50;;;;;;;1.73;1.30;;;;;;;16.10;30.63;100067.56;16137213;19;129755;-62
2022/12/14 06:04:13;;;;;;;1.52;1.30;;;;;;;16.10;30.59;100059.28;16136041;19;129549;-62
2022/12/14 06:09:35;;;;;;;2.25;1.20;;;;;;;16.29;30.13;100060.69;16137823;19;129940;-62
2022/12/14 06:14:57;;;;;;;1.27;0.95;;;;;;;16.84;29.73;100057.38;16135203;19;130243;-62
2022/12/14 06:20:19;;;;;;;1.55;1.13;;;;;;;17.51;29.40;100056.25;16134724;19;129977;-62
2022/12/14 06:25:40;;;;;;;1.38;1.15;;;;;;;18.10;28.77;100054.63;16134416;19;129197;-62
2022/12/14 06:31:03;;;;;;;1.02;0.90;;;;;;;18.69;28.51;100044.56;16135007;19;129240;-63
2022/12/14 06:36:28;;;;;;;1.17;0.80;;;;;;;19.24;28.00;100054.53;16132422;19;130312;-62
2022/12/14 06:41:50;;;;;;;1.80;1.13;;;;;;;19.56;27.71;100051.59;16134216;19;130486;-62
2022/12/14 06:47:12;;;;;;;1.08;0.98;;;;;;;19.69;27.39;100055.75;16130888;19;129447;-62
2022/12/14 06:52:36;;;;;;;1.98;1.13;;;;;;;19.64;27.30;100056.59;16137087;19;129489;-62
2022/12/14 06:57:58;;;;;;;1.20;1.10;;;;;;;19.49;27.61;100053.78;16138287;19;130265;-62
2022/12/14 07:03:19;;;;;;;1.70;1.30;;;;;;;19.31;27.57;100055.94;16129527;19;130016;-62
2022/12/14 07:08:41;;;;;;;1.13;0.90;;;;;;;19.12;27.64;100057.50;16129885;19;130255;-62
2022/12/14 07:14:05;;;;;;;1.65;1.13;;;;;;;18.90;27.86;100050.19;16131382;19;131340;-62
2022/12/14 07:19:26;;;;;;;1.48;1.10;;;;;;;18.71;28.11;100061.72;16129230;19;129251;-62
2022/12/14 07:24:48;;;;;;;1.42;1.20;;;;;;;18.51;28.55;100061.59;16134804;19;129941;-62
2022/12/14 07:30:10;;;;;;;2.72;0.93;;;;;;;18.33;28.61;100063.69;16128695;19;129651;-62
2022/12/14 07:35:32;;;;;;;2.38;1.10;;;;;;;18.21;28.88;100054.72;16131007;19;129065;-63
2022/12/14 07:41:00;;;;;;;1.02;0.90;;;;;;;18.33;28.33;100058.13;16131117;19;129521;-62
2022/12/14 07:46:24;;;;;;;1.60;1.05;;;;;;;18.65;28.60;100054.50;16126860;19;129527;-63
2022/12/14 07:51:46;;;;;;;2.55;1.20;;;;;;;19.11;28.08;100069.69;16129049;19;129892;-63
2022/12/14 07:57:08;;;;;;;1.60;1.10;;;;;;;19.52;27.47;100072.66;16125986;19;130317;-63
2022/12/14 08:02:30;;;;;;;1.20;1.05;;;;;;;19.93;27.38;100077.44;16128074;19;129672;-67
2022/12/14 08:07:52;;;;;;;1.90;1.27;;;;;;;20.25;27.02;100073.59;16127605;19;131159;-65
2022/12/14 08:13:13;;;;;;;6.47;1.70;;;;;;;20.53;26.76;100069.41;16130724;19;129130;-63
2022/12/14 08:18:35;;;;;;;7.30;1.60;;;;;;;20.71;26.30;100064.34;16135898;19;129751;-63
2022/12/14 08:23:58;;;;;;;3.30;1.70;;;;;;;20.80;26.45;100064.66;16134961;19;130608;-61
2022/12/14 08:29:21;;;;;;;4.18;1.50;;;;;;;20.76;26.57;100072.72;16115405;19;129773;-61
2022/12/14 08:34:42;;;;;;;4.28;1.50;;;;;;;20.60;26.42;100083.03;16118709;19;129733;-61
2022/12/14 08:40:05;;;;;;;5.85;1.67;;;;;;;20.40;26.53;100075.53;16117505;19;129728;-61
2022/12/14 08:45:27;;;;;;;4.32;1.50;;;;;;;20.17;26.73;100072.22;16124129;19;130536;-61
2022/12/14 08:50:49;;;;;;;2.97;1.83;;;;;;;19.92;26.68;100084.94;16126485;19;129377;-63
2022/12/14 08:56:14;;;;;;;4.55;2.33;;;;;;;19.65;27.24;100076.81;16125271;19;130031;-62
2022/12/14 09:01:36;;;;;;;4.70;2.28;;;;;;;19.41;27.01;100088.41;16126523;19;129770;-60
2022/12/14 09:06:57;;;;;;;4.32;2.13;;;;;;;19.19;27.44;100094.97;16125191;19;129184;-63
2022/12/14 09:12:19;;;;;;;7.70;2.35;;;;;;;19.01;27.44;100107.34;16119050;19;129424;-64
2022/12/14 09:17:41;;;;;;;5.13;2.40;;;;;;;18.85;27.43;100109.22;16122246;19;129424;-63
2022/12/14 09:23:03;;;;;;;3.92;2.42;;;;;;;18.71;27.50;100108.81;16119328;19;130512;-62
2022/12/14 09:28:26;;;;;;;4.03;2.55;;;;;;;18.58;27.96;100112.09;16121277;19;129777;-61
2022/12/14 09:33:48;;;;;;;6.57;2.70;;;;;;;18.56;27.76;100122.59;16123866;19;129670;-62
2022/12/14 09:39:13;;;;;;;3.88;2.03;;;;;;;18.89;27.91;100129.72;16122610;19;129151;-62
2022/12/14 09:44:57;;;;;;;3.47;1.73;;;;;;;19.45;27.14;100120.06;16122785;19;128927;-61
2022/12/14 09:50:21;;;;;;;2.95;1.77;;;;;;;19.92;27.18;100139.63;16123026;19;130126;-64
2022/12/14 09:55:51;;;;;;;5.60;2.08;;;;;;;20.28;26.73;100143.31;16121408;19;129651;-63
2022/12/14 10:01:40;;;;;;;9.60;2.25;;;;;;;20.37;26.62;100137.22;16120769;19;133223;-64
2022/12/14 10:07:25;;;;;;;7.82;2.35;;;;;;;20.22;27.29;100143.59;16120327;19;129491;-64
2022/12/14 10:13:15;;;;;;;14.55;3.22;;;;;;;20.05;27.16;100153.00;16119373;19;129211;-62
2022/12/14 10:19:11;;;;;;;14.32;5.93;;;;;;;19.87;27.01;100148.78;16122196;19;129468;-62
2022/12/14 10:24:40;;;;;;;11.85;4.32;;;;;;;19.66;27.41;100140.41;16140226;19;133684;-64
2022/12/14 10:30:28;;;;;;;15.07;5.63;;;;;;;19.48;27.33;100138.09;16138372;19;129437;-61
2022/12/14 10:35:59;;;;;;;15.68;8.35;;;;;;;19.34;27.63;100141.38;16135544;19;129521;-63
2022/12/14 10:41:20;;;;;;;16.35;8.77;;;;;;;19.21;27.94;100133.53;16134519;19;129916;-63
2022/12/14 10:47:00;;;;;;;19.13;8.65;;;;;;;19.15;27.81;100135.41;16116036;19;130239;-61
2022/12/14 10:52:27;;;;;;;13.48;7.97;;;;;;;19.05;28.64;100130.66;16134417;19;129598;-66
2022/12/14 10:57:49;;;;;;;15.35;9.50;;;;;;;18.99;28.89;100128.13;16135062;19;129682;-63
2022/12/14 11:03:12;;;;;;;14.10;7.68;;;;;;;;;;16132502;19;129364;-64
2022/12/14 11:08:44;;;;;;;13.45;8.20;;;;;;;18.85;29.70;100136.06;16137158;19;129135;-70
2022/12/14 11:14:15;;;;;;;19.17;7.55;;;;;;;18.73;29.81;100150.97;16136549;19;129516;-68
2022/12/14 11:19:36;;;;;;;12.93;7.63;;;;;;;18.65;29.70;100153.38;16136543;19;129420;-64
2022/12/14 11:24:58;;;;;;;13.07;7.13;;;;;;;18.55;30.04;100143.06;16134785;19;135840;-65
2022/12/14 11:30:20;;;;;;;14.65;7.10;;;;;;;18.57;30.36;100157.50;16132096;19;129158;-69
2022/12/14 11:35:50;;;;;;;13.82;7.07;;;;;;;18.71;30.18;100153.16;16133003;19;129562;-62
2022/12/14 11:41:20;;;;;;;9.25;6.57;;;;;;;18.91;29.65;100157.19;16133903;19;130369;-63
2022/12/14 11:46:56;;;;;;;9.77;6.40;;;;;;;19.04;29.18;100142.00;16133448;19;129447;-64
2022/12/14 11:52:21;;;;;;;8.38;6.13;;;;;;;19.12;28.96;100143.44;16133091;19;130585;-64
2022/12/14 11:57:52;;;;;;;7.47;5.50;;;;;;;19.26;28.50;100150.22;16132449;19;129518;-64
2022/12/14 12:03:23;;;;;;;7.70;5.63;;;;;;;19.42;28.05;100155.84;16130988;19;129891;-64
2022/12/14 12:08:45;;;;;;;7.45;5.03;;;;;;;19.51;27.91;100165.31;16131189;19;129177;-65
2022/12/14 12:14:33;;;;;;;10.15;5.10;;;;;;;19.56;27.64;100151.47;16129570;19;129528;-64
2022/12/14 12:19:56;;;;;;;8.93;4.53;;;;;;;19.49;27.63;100162.81;16129825;19;131372;-64
2022/12/14 12:25:22;;;;;;;7.03;4.72;;;;;;;19.43;27.88;100155.56;16131005;19;133510;-62
2022/12/14 12:30:58;;;;;;;7.28;4.88;;;;;;;19.34;28.25;100154.41;16129224;19;129541;-67
2022/12/14 12:36:21;;;;;;;8.32;5.18;;;;;;;19.24;28.38;100157.13;16130126;19;129729;-65
2022/12/14 12:41:51;;;;;;;6.47;4.05;;;;;;;19.13;28.55;100154.28;16129938;19;129486;-66
2022/12/14 12:47:22;;;;;;;6.22;4.22;;;;;;;19.04;28.75;100151.19;16126858;19;135058;-66
2022/12/14 12:53:23;;;;;;;5.93;3.97;;;;;;;18.93;29.27;100166.06;16128785;19;129592;-66
2022/12/14 12:58:48;;;;;;;6.35;3.65;;;;;;;18.82;29.07;100165.16;16124421;19;129361;-66
2022/12/14 13:04:41;;;;;;;6.25;4.03;;;;;;;18.71;29.68;100172.56;16129413;19;129819;-65
2022/12/14 13:10:21;;;;;;;7.22;3.60;;;;;;;18.71;29.38;100175.31;16127925;19;129812;-65
2022/12/14 13:15:49;;;;;;;5.88;3.67;;;;;;;18.79;29.79;100167.63;16128694;19;129945;-66
2022/12/14 13:21:31;;;;;;;5.50;3.30;;;;;;;18.89;29.49;100179.59;16126075;19;129303;-66
2022/12/14 13:27:03;;;;;;;5.75;3.40;;;;;;;18.99;29.65;100178.03;16126984;19;130173;-66
2022/12/14 13:33:07;;;;;;;5.90;3.28;;;;;;;19.07;29.30;100183.91;16126608;19;129571;-64
2022/12/14 13:38:59;;;;;;;9.48;3.10;;;;;;;19.15;30.18;100187.28;16118053;19;130354;-63
2022/12/14 13:44:59;;;;;;;10.40;3.70;;;;;;;19.14;31.36;100199.47;16120674;19;129782;-63
2022/12/14 13:50:31;;;;;;;5.38;3.20;;;;;;;19.03;32.13;100202.16;16118789;19;130131;-63
2022/12/14 13:56:01;;;;;;;6.22;3.80;;;;;;;18.91;32.23;100196.00;16120389;19;129132;-63
2022/12/14 14:01:47;;;;;;;6.53;3.25;;;;;;;18.83;32.75;100205.63;16129126;19;129837;-63
2022/12/14 14:07:21;;;;;;;;;;;;;;;18.67;32.75;100221.31;16130402;19;129790;-63
2022/12/14 14:12:43;;;;;;;12.13;3.78;;;;;;;18.66;33.30;100211.31;16132965;19;129777;-63
2022/12/14 14:18:16;;;;;;;10.80;3.78;;;;;;;18.76;33.63;100227.19;16135288;19;129302;-64
2022/12/14 14:24:05;;;;;;;7.38;3.50;;;;;;;18.88;34.55;100221.47;16135451;19;129860;-63
2022/12/14 14:29:28;;;;;;;5.85;3.50;;;;;;;18.98;34.85;100235.38;16133165;19;129921;-64
2022/12/14 14:34:50;;;;;;;7.88;3.25;;;;;;;19.12;35.23;100233.00;16135565;19;129590;-63
2022/12/14 14:40:13;;;;;;;9.57;3.15;;;;;;;19.28;35.50;100228.44;16132019;19;129431;-63
2022/12/14 14:45:55;;;;;;;9.80;3.03;;;;;;;19.45;35.42;100232.94;16135436;19;129225;-64
2022/12/14 14:51:27;;;;;;;7.68;2.53;;;;;;;19.56;35.44;100237.47;16134219;19;129107;-64
2022/12/14 14:56:50;;;;;;;6.63;2.40;;;;;;;19.59;34.28;100242.47;16134596;19;130181;-64
2022/12/14 15:02:28;;;;;;;7.10;2.55;;;;;;;19.60;34.22;100251.63;16131536;19;129637;-64
2022/12/14 15:07:53;;;;;;;7.78;2.70;;;;;;;19.53;34.14;100260.19;16130395;19;129401;-63
2022/12/14 15:13:28;;;;;;;6.43;2.67;;;;;;;19.43;34.26;100257.38;16127118;19;131203;-63
2022/12/14 15:18:50;;;;;;;6.53;2.97;;;;;;;19.30;34.08;100270.59;16130191;19;129731;-63
2022/12/14 15:24:13;;;;;;;8.13;3.40;;;;;;;19.18;34.03;100275.47;16129943;19;129117;-63
2022/12/14 15:29:35;;;;;;;9.90;3.53;;;;;;;19.05;34.21;100280.38;16130285;19;130294;-63
2022/12/14 15:35:03;;;;;;;11.43;3.47;;;;;;;18.95;34.44;100285.84;16128763;19;129420;-62
2022/12/14 15:40:31;;;;;;;7.70;3.70;;;;;;;18.84;34.25;100290.44;16128487;19;129726;-63
2022/12/14 15:45:57;;;;;;;13.05;3.30;;;;;;;18.75;34.22;100298.38;16128671;19;133522;-63
2022/12/14 15:51:31;;;;;;;7.55;3.25;;;;;;;18.69;34.22;100309.69;16130094;19;129733;-63
2022/12/14 15:56:55;;;;;;;8.35;3.67;;;;;;;18.58;34.26;100311.53;16132761;19;135088;-63
2022/12/14 16:02:26;;;;;;;18.00;3.75;;;;;;;18.52;33.89;100312.56;16125982;19;130478;-63
2022/12/14 16:07:54;;;;;;;6.93;3.63;;;;;;;18.43;33.91;100306.66;16125386;19;130881;-63
2022/12/14 16:13:24;;;;;;;6.03;3.42;;;;;;;18.37;34.12;100314.03;16125331;19;129685;-63
2022/12/14 16:18:49;;;;;;;6.30;4.10;;;;;;;18.31;33.57;100309.53;16124786;19;131173;-63
2022/12/14 16:24:23;;;;;;;7.70;3.88;;;;;;;18.24;33.86;100319.97;16126413;19;129549;-62
2022/12/14 16:30:06;;;;;;;7.65;3.50;;;;;;;18.20;34.03;100330.72;16123774;19;129228;-63
2022/12/14 16:35:32;;;;;;;10.15;3.25;;;;;;;18.14;34.11;100327.06;16125554;19;129379;-62
2022/12/14 16:41:00;;;;;;;6.85;3.30;;;;;;;18.21;35.06;100326.03;16127555;19;130854;-63
2022/12/14 16:46:21;;;;;;;5.68;2.30;;;;;;;18.42;35.24;100333.50;16125592;19;129493;-63
2022/12/14 16:51:44;;;;;;;5.60;2.13;;;;;;;18.68;34.88;100336.56;16125451;19;129452;-63
2022/12/14 16:57:26;;;;;;;4.95;2.10;;;;;;;18.98;34.37;100337.94;16125799;19;129513;-63
2022/12/14 17:02:59;;;;;;;5.47;1.73;;;;;;;19.25;34.32;100327.97;16125511;19;129388;-63
2022/12/14 17:08:21;;;;;;;2.75;1.70;;;;;;;19.46;34.46;100334.47;16126003;19;129755;-63
2022/12/14 17:13:43;;;;;;;4.47;1.67;;;;;;;19.61;34.07;100337.38;16125453;19;129444;-63
2022/12/14 17:19:19;;;;;;;4.18;1.85;;;;;;;19.74;34.34;100343.56;16121590;19;129917;-63
2022/12/14 17:24:44;;;;;;;4.25;1.73;;;;;;;19.69;33.98;100347.94;16123100;19;129316;-63
2022/12/14 17:30:17;;;;;;;4.10;1.45;;;;;;;19.63;34.13;100354.59;16125921;19;129578;-63
2022/12/14 17:35:39;;;;;;;5.70;1.75;;;;;;;19.50;34.27;100358.69;16136247;19;129431;-63
2022/12/14 17:41:01;;;;;;;8.73;2.10;;;;;;;19.37;34.34;100362.72;16132545;19;129448;-61
2022/12/14 17:46:24;;;;;;;11.02;2.00;;;;;;;19.34;34.87;100363.25;16133617;19;130469;-60
2022/12/14 17:51:45;;;;;;;5.53;1.92;;;;;;;19.48;34.60;100365.56;16136262;19;129749;-61
2022/12/14 17:57:19;;;;;;;4.38;1.70;;;;;;;19.66;35.06;100361.53;16132694;19;129587;-60
2022/12/14 18:02:41;;;;;;;3.63;1.42;;;;;;;19.72;34.97;100367.94;16143787;19;129217;-62
2022/12/14 18:08:03;;;;;;;4.45;1.52;;;;;;;19.68;34.98;100357.41;16140766;19;129385;-62
2022/12/14 18:13:27;;;;;;;3.67;1.45;;;;;;;19.69;34.73;100364.59;16136275;19;129775;-60
2022/12/14 18:18:52;;;;;;;3.88;1.55;;;;;;;19.86;34.84;100383.03;16137743;19;129792;-61
2022/12/14 18:24:14;;;;;;;4.17;1.40;;;;;;;20.09;34.63;100386.53;16134916;19;130730;-63
2022/12/14 18:29:38;;;;;;;6.28;1.60;;;;;;;20.33;34.46;100392.50;16135663;19;130688;-58
2022/12/14 18:35:00;;;;;;;13.95;2.85;;;;;;;20.47;33.82;100380.88;16136538;19;129655;-60
2022/12/14 18:40:25;;;;;;;7.80;2.55;;;;;;;20.66;33.90;100378.44;16133379;19;130041;-60
2022/12/14 18:45:46;;;;;;;12.30;2.60;;;;;;;20.84;33.66;100391.03;16141507;19;129393;-60
2022/12/14 18:51:14;;;;;;;7.03;1.98;;;;;;;20.97;33.09;100390.50;16134029;19;129233;-59
2022/12/14 18:56:35;;;;;;;11.48;2.55;;;;;;;20.99;33.17;100404.13;16132292;19;129532;-60
2022/12/14 19:01:57;;;;;;;4.90;2.20;;;;;;;21.01;33.41;100396.34;16132613;19;129550;-57
2022/12/14 19:07:19;;;;;;;17.27;2.40;;;;;;;21.11;32.96;100396.34;16131033;19;129301;-58
2022/12/14 19:12:42;;;;;;;10.48;1.95;;;;;;;21.20;33.35;100394.69;16129059;19;129817;-58
2022/12/14 19:18:04;;;;;;;14.02;2.40;;;;;;;21.30;32.87;100393.88;16130469;19;129780;-59
2022/12/14 19:23:27;;;;;;;11.38;2.58;;;;;;;21.37;33.25;100396.38;16125756;19;131931;-58
2022/12/14 19:28:49;;;;;;;11.43;2.35;;;;;;;21.36;33.18;100398.31;16130513;19;129761;-58
2022/12/14 19:34:12;;;;;;;10.43;2.53;;;;;;;21.35;33.52;100406.94;16136455;19;130522;-58
2022/12/14 19:39:33;;;;;;;10.50;2.38;;;;;;;21.27;33.56;100418.63;16151191;19;131196;-61
2022/12/14 19:44:55;;;;;;;9.98;2.25;;;;;;;21.18;33.70;100435.03;16141889;19;129591;-66
2022/12/14 19:50:17;;;;;;;8.02;2.08;;;;;;;21.09;33.93;100426.38;16142656;19;129518;-62
2022/12/14 19:55:39;;;;;;;7.72;1.98;;;;;;;20.98;33.83;100430.25;16131045;19;129235;-59
2022/12/14 20:01:01;;;;;;;14.25;2.13;;;;;;;20.86;34.23;100439.69;16131546;19;129072;-59
2022/12/14 20:06:23;;;;;;;7.97;2.10;;;;;;;20.76;34.65;100439.66;16129454;19;129539;-60
2022/12/14 20:11:45;;;;;;;8.77;2.38;;;;;;;20.67;34.58;100441.28;16130479;19;130059;-58
2022/12/14 20:17:10;;;;;;;6.80;2.08;;;;;;;20.59;34.60;100435.09;16131710;19;129277;-58
2022/12/14 20:22:32;;;;;;;6.53;1.70;;;;;;;20.48;34.96;100444.50;16137731;19;129579;-58
2022/12/14 20:27:54;;;;;;;8.75;1.95;;;;;;;20.42;35.02;100451.16;16132802;19;129708;-58
2022/12/14 20:33:15;;;;;;;9.80;1.98;;;;;;;20.33;35.37;100455.53;16133240;19;129526;-59
2022/12/14 20:38:37;;;;;;;5.25;2.03;;;;;;;20.22;35.53;100457.44;16127277;19;129452;-57
2022/12/14 20:44:01;;;;;;;4.63;1.92;;;;;;;20.24;35.43;100477.47;16124800;19;129191;-55
2022/12/14 20:49:28;;;;;;;7.13;2.20;;;;;;;20.40;35.17;100483.94;16126501;19;129447;-57
2022/12/14 20:54:50;;;;;;;4.90;1.80;;;;;;;20.60;34.90;100486.81;16127591;19;128983;-61
2022/12/14 21:00:12;;;;;;;5.85;1.90;;;;;;;20.71;34.93;100487.69;16125092;19;129934;-57
2022/12/14 21:05:39;;;;;;;5.88;1.98;;;;;;;20.80;34.88;100493.59;16124852;19;130580;-54
2022/12/14 21:12:19;;;;;;;3.75;1.73;;;;;;;20.78;34.78;100481.06;16120611;19;130766;-50
2022/12/14 21:16:44;;;;;;;2.85;1.60;;;;;;;20.68;34.97;100488.22;16121339;19;130128;-58
2022/12/14 21:22:08;;;;;;;3.80;1.77;;;;;;;20.57;34.83;100495.69;16121534;19;129356;-58
2022/12/14 21:27:31;;;;;;;5.10;1.90;;;;;;;20.44;34.96;100508.13;16121677;19;131682;-59
2022/12/14 21:32:52;;;;;;;3.72;1.90;;;;;;;20.33;35.14;100505.53;16118629;19;129601;-60
2022/12/14 21:38:14;;;;;;;4.65;2.10;;;;;;;20.20;35.28;100507.69;16119515;19;130297;-60
2022/12/14 21:43:36;;;;;;;6.18;2.50;;;;;;;20.08;35.32;100507.03;16124454;19;130177;-59
2022/12/14 21:48:58;;;;;;;5.10;2.60;;;;;;;19.95;35.48;100509.13;16125812;19;129475;-51
2022/12/14 21:54:20;;;;;;;5.38;2.58;;;;;;;19.81;35.37;100508.75;16120292;19;129419;-60
2022/12/14 21:59:45;;;;;;;9.63;2.40;;;;;;;19.71;35.21;100516.16;16119996;19;129862;-59
2022/12/14 22:05:07;;;;;;;;;;;;;;;19.57;35.61;100513.81;16121020;19;130933;-60
2022/12/14 22:10:29;;;;;;;4.90;2.70;;;;;;;19.49;35.34;100533.69;16121628;19;130484;-59
2022/12/14 22:15:51;;;;;;;4.40;2.72;;;;;;;19.35;35.10;100534.13;16120397;19;130332;-59
2022/12/14 22:21:13;;;;;;;7.90;2.95;;;;;;;19.24;35.24;100534.28;16135706;19;133269;-59
2022/12/14 22:26:36;;;;;;;5.22;2.65;;;;;;;19.12;35.32;100529.69;16136176;19;129563;-59
2022/12/14 22:31:58;;;;;;;4.03;2.83;;;;;;;19.01;35.53;100534.25;16136199;19;130548;-60
2022/12/14 22:37:20;;;;;;;3.78;2.50;;;;;;;18.92;35.55;100546.91;16135624;19;129813;-59
2022/12/14 22:42:42;;;;;;;5.03;2.40;;;;;;;18.82;35.39;100541.22;16130869;19;129052;-59
2022/12/14 22:48:04;;;;;;;3.42;2.55;;;;;;;18.74;35.57;100557.19;16132612;19;129752;-60
2022/12/14 22:53:27;;;;;;;5.10;3.15;;;;;;;18.68;35.79;100568.47;16130972;19;129606;-59
2022/12/14 22:59:19;;;;;;;3.63;2.80;;;;;;;18.63;35.77;100583.09;16132858;19;129388;-59
2022/12/14 23:04:40;;;;;;;4.13;3.03;;;;;;;18.54;35.49;100584.63;16131556;19;129468;-59
